Time;durP1;ratioP1;P1;durP2;ratioP2;P2;SDS_P1;SDS_P2;PMS_P1;PMS_P2;Temp;Humidity;BMP_temperature;BMP_pressure;BME280_temperature;BME280_humidity;BME280_pressure;Samples;Min_cycle;Max_cycle;Signal;HPM_P1;HPM_P2
2023/05/28 00:00:44;;;;;;;;;;;19.90;56.70;;;;;;5060539;28;19943;-78
2023/05/28 00:03:09;;;;;;;;;;;19.90;56.70;;;;;;5059861;28;20222;-80
2023/05/28 00:05:35;;;;;;;;;;;19.90;56.70;;;;;;5076657;28;20239;-80
2023/05/28 00:08:01;;;;;;;;;;;19.90;56.70;;;;;;5059693;28;19957;-80
2023/05/28 00:10:27;;;;;;;;;;;19.90;56.80;;;;;;5060143;28;19920;-80
2023/05/28 00:12:53;;;;;;;;;;;19.80;56.70;;;;;;5059797;28;19920;-80
2023/05/28 00:15:18;;;;;;;;;;;19.80;56.80;;;;;;5058455;28;19913;-80
2023/05/28 00:17:44;;;;;;;;;;;19.80;56.80;;;;;;5059445;28;19915;-80
2023/05/28 00:20:10;;;;;;;;;;;19.80;56.80;;;;;;5076934;28;19909;-80
2023/05/28 00:22:35;;;;;;;;;;;19.80;56.90;;;;;;5058576;28;19919;-79
2023/05/28 00:25:01;;;;;;;;;;;19.80;56.90;;;;;;5058439;28;19909;-80
2023/05/28 00:27:27;;;;;;;;;;;19.70;56.80;;;;;;5058504;28;19920;-80
2023/05/28 00:29:53;;;;;;;;;;;19.70;56.90;;;;;;5058596;28;19908;-80
2023/05/28 00:32:18;;;;;;;;;;;19.70;56.90;;;;;;5059391;28;20313;-80
2023/05/28 00:34:44;;;;;;;;;;;19.70;56.90;;;;;;5059486;28;19972;-80
2023/05/28 00:37:10;;;;;;;;;;;19.70;56.90;;;;;;5059617;28;19909;-80
2023/05/28 00:39:37;;;;;;;;;;;19.70;57.00;;;;;;5077446;28;19915;-80
2023/05/28 00:42:03;;;;;;;;;;;19.70;57.00;;;;;;5060325;28;19909;-80
2023/05/28 00:44:31;;;;;;;;;;;19.60;56.90;;;;;;5060231;28;19909;-80
2023/05/28 00:46:56;;;;;;;;;;;19.60;57.00;;;;;;5060693;28;19915;-80
2023/05/28 00:49:23;;;;;;;;;;;19.60;57.00;;;;;;5060122;28;19909;-80
2023/05/28 00:51:48;;;;;;;;;;;19.60;57.00;;;;;;5059628;28;19990;-80
2023/05/28 00:54:15;;;;;;;;;;;19.60;57.00;;;;;;5060381;28;19916;-80
2023/05/28 00:56:40;;;;;;;;;;;19.60;57.00;;;;;;5060023;28;20286;-80
2023/05/28 00:59:07;;;;;;;;;;;19.50;57.00;;;;;;5058212;28;20155;-80
2023/05/28 01:01:33;;;;;;;;;;;19.50;57.00;;;;;;5058747;28;19938;-80
2023/05/28 01:04:00;;;;;;;;;;;19.50;57.00;;;;;;5075840;28;19908;-80
2023/05/28 01:06:28;;;;;;;;;;;19.50;57.10;;;;;;5067242;28;20360;-79
2023/05/28 01:08:54;;;;;;;;;;;19.50;57.10;;;;;;5057090;28;20274;-80
2023/05/28 01:11:20;;;;;;;;;;;19.50;57.10;;;;;;5056508;28;20413;-80
2023/05/28 01:13:46;;;;;;;;;;;19.50;57.10;;;;;;5056677;28;19914;-80
2023/05/28 01:16:12;;;;;;;;;;;19.40;57.10;;;;;;5056403;28;19920;-80
2023/05/28 01:18:41;;;;;;;;;;;19.40;57.10;;;;;;5057752;28;20065;-80
2023/05/28 01:21:08;;;;;;;;;;;19.40;57.10;;;;;;5075693;28;19927;-80
2023/05/28 01:23:42;;;;;;;;;;;19.40;57.10;;;;;;5056934;28;19909;-80
2023/05/28 01:26:07;;;;;;;;;;;19.40;57.10;;;;;;5057498;28;20037;-80
2023/05/28 01:28:33;;;;;;;;;;;19.40;57.10;;;;;;5075809;28;19916;-80
2023/05/28 01:30:58;;;;;;;;;;;19.40;57.20;;;;;;5075592;28;19915;-80
2023/05/28 01:33:24;;;;;;;;;;;19.40;57.20;;;;;;5076010;28;20236;-80
2023/05/28 01:35:56;;;;;;;;;;;19.30;57.20;;;;;;5058635;28;19923;-80
2023/05/28 01:38:22;;;;;;;;;;;19.30;57.20;;;;;;5058534;28;19908;-80
2023/05/28 01:40:48;;;;;;;;;;;19.30;57.20;;;;;;5058758;28;19908;-80
2023/05/28 01:43:14;;;;;;;;;;;19.30;57.20;;;;;;5059187;28;19973;-80
2023/05/28 01:45:40;;;;;;;;;;;19.30;57.20;;;;;;5059647;28;19909;-80
2023/05/28 01:48:06;;;;;;;;;;;19.20;57.20;;;;;;5059276;28;19909;-80
2023/05/28 01:50:32;;;;;;;;;;;19.20;57.20;;;;;;5059170;28;19995;-80
2023/05/28 01:52:58;;;;;;;;;;;19.20;57.20;;;;;;5076191;28;19908;-80
2023/05/28 01:55:24;;;;;;;;;;;19.20;57.30;;;;;;5076600;28;19912;-80
2023/05/28 01:57:49;;;;;;;;;;;19.20;57.30;;;;;;5059591;28;19908;-80
2023/05/28 02:00:15;;;;;;;;;;;19.20;57.30;;;;;;5076630;28;19908;-80
2023/05/28 02:02:42;;;;;;;;;;;19.20;57.30;;;;;;5077741;28;19908;-80
2023/05/28 02:05:08;;;;;;;;;;;19.10;57.30;;;;;;5059717;28;19935;-80
2023/05/28 02:07:33;;;;;;;;;;;19.20;57.30;;;;;;5058871;28;20290;-80
2023/05/28 02:09:59;;;;;;;;;;;19.20;57.40;;;;;;5075194;28;19923;-80
2023/05/28 02:12:25;;;;;;;;;;;19.10;57.40;;;;;;5058629;28;19916;-80
2023/05/28 02:14:51;;;;;;;;;;;19.10;57.40;;;;;;5057357;28;19916;-80
2023/05/28 02:17:17;;;;;;;;;;;19.10;57.40;;;;;;5057549;28;19908;-80
2023/05/28 02:19:43;;;;;;;;;;;19.10;57.40;;;;;;5056907;28;19917;-80
2023/05/28 02:22:11;;;;;;;;;;;19.10;57.40;;;;;;5056468;28;19939;-80
2023/05/28 02:24:37;;;;;;;;;;;19.00;57.30;;;;;;5074426;28;19920;-80
2023/05/28 02:27:04;;;;;;;;;;;19.10;57.40;;;;;;5056457;28;19909;-80
2023/05/28 02:29:30;;;;;;;;;;;19.00;57.40;;;;;;5057583;28;20019;-80
2023/05/28 02:31:55;;;;;;;;;;;19.00;57.40;;;;;;5061104;28;19963;-80
2023/05/28 02:34:21;;;;;;;;;;;19.00;57.40;;;;;;5063456;28;19908;-80
2023/05/28 02:36:46;;;;;;;;;;;19.00;57.50;;;;;;5063499;28;20272;-80
2023/05/28 02:39:13;;;;;;;;;;;19.00;57.50;;;;;;5062438;28;20334;-80
2023/05/28 02:41:38;;;;;;;;;;;19.00;57.50;;;;;;5062401;28;19908;-80
2023/05/28 02:44:04;;;;;;;;;;;19.00;57.50;;;;;;5080120;28;19909;-80
2023/05/28 02:46:31;;;;;;;;;;;18.90;57.50;;;;;;5080036;28;20237;-80
2023/05/28 02:48:56;;;;;;;;;;;18.90;57.50;;;;;;5061826;28;20263;-80
2023/05/28 02:51:22;;;;;;;;;;;18.90;57.50;;;;;;5079414;28;19919;-80
2023/05/28 02:53:47;;;;;;;;;;;18.90;57.50;;;;;;5060606;28;20002;-80
2023/05/28 02:56:14;;;;;;;;;;;18.90;57.50;;;;;;5060511;28;19912;-80
2023/05/28 02:58:40;;;;;;;;;;;18.90;57.50;;;;;;5060453;28;19908;-80
2023/05/28 03:01:06;;;;;;;;;;;18.80;57.50;;;;;;5061670;28;20374;-80
2023/05/28 03:03:31;;;;;;;;;;;18.80;57.50;;;;;;5060759;28;20164;-80
2023/05/28 03:05:57;;;;;;;;;;;18.80;57.50;;;;;;5061081;28;19992;-79
2023/05/28 03:08:23;;;;;;;;;;;18.80;57.50;;;;;;5061942;28;20264;-80
2023/05/28 03:10:49;;;;;;;;;;;18.80;57.60;;;;;;5061669;28;19916;-80
2023/05/28 03:13:14;;;;;;;;;;;18.80;57.60;;;;;;5061597;28;19916;-80
2023/05/28 03:15:40;;;;;;;;;;;18.80;57.60;;;;;;5078049;28;19917;-80
2023/05/28 03:18:06;;;;;;;;;;;18.80;57.60;;;;;;5061551;28;19918;-80
2023/05/28 03:20:32;;;;;;;;;;;18.80;57.60;;;;;;5061827;28;19908;-80
2023/05/28 03:22:58;;;;;;;;;;;18.70;57.50;;;;;;5062421;28;20175;-80
2023/05/28 03:25:24;;;;;;;;;;;18.70;57.50;;;;;;5061961;28;20336;-80
2023/05/28 03:27:50;;;;;;;;;;;18.70;57.50;;;;;;5062039;28;20011;-80
2023/05/28 03:30:15;;;;;;;;;;;18.70;57.60;;;;;;5061889;28;19951;-80
2023/05/28 03:32:41;;;;;;;;;;;18.70;57.50;;;;;;5060514;28;19936;-80
2023/05/28 03:35:07;;;;;;;;;;;18.70;57.60;;;;;;5060057;28;20275;-80
2023/05/28 03:37:33;;;;;;;;;;;18.70;57.60;;;;;;5059954;28;19908;-80
2023/05/28 03:39:58;;;;;;;;;;;18.70;57.50;;;;;;5058988;28;19909;-79
2023/05/28 03:42:24;;;;;;;;;;;18.70;57.60;;;;;;5060027;28;19912;-80
2023/05/28 03:44:50;;;;;;;;;;;18.70;57.60;;;;;;5059901;28;19948;-80
2023/05/28 03:47:15;;;;;;;;;;;18.60;57.50;;;;;;5078773;28;19920;-80
2023/05/28 03:49:41;;;;;;;;;;;18.60;57.50;;;;;;5060244;28;19926;-79
2023/05/28 03:52:07;;;;;;;;;;;18.60;57.50;;;;;;5060313;28;19919;-79
2023/05/28 03:54:33;;;;;;;;;;;18.60;57.50;;;;;;5060739;28;19909;-80
2023/05/28 03:56:58;;;;;;;;;;;18.60;57.50;;;;;;5061554;28;19956;-79
2023/05/28 03:59:24;;;;;;;;;;;18.60;57.50;;;;;;5060798;28;19940;-80
2023/05/28 04:01:49;;;;;;;;;;;18.60;57.50;;;;;;5079201;28;20261;-80
2023/05/28 04:04:15;;;;;;;;;;;18.60;57.50;;;;;;5078698;28;19940;-80
2023/05/28 04:06:41;;;;;;;;;;;18.60;57.50;;;;;;5061447;28;19974;-80
2023/05/28 04:09:07;;;;;;;;;;;18.60;57.50;;;;;;5061513;28;19920;-80
2023/05/28 04:11:34;;;;;;;;;;;18.60;57.40;;;;;;5061607;28;19920;-80
2023/05/28 04:14:00;;;;;;;;;;;18.60;57.80;;;;;;5060824;28;19919;-80
2023/05/28 04:16:26;;;;;;;;;;;18.60;57.40;;;;;;5060463;28;19939;-80
2023/05/28 04:18:52;;;;;;;;;;;18.60;57.40;;;;;;5060506;28;19908;-80
2023/05/28 04:21:18;;;;;;;;;;;18.60;57.40;;;;;;5077314;28;19993;-80
2023/05/28 04:23:44;;;;;;;;;;;18.60;57.50;;;;;;5059960;28;19971;-80
2023/05/28 04:26:10;;;;;;;;;;;18.60;57.40;;;;;;5059447;28;19944;-80
2023/05/28 04:28:36;;;;;;;;;;;18.60;57.40;;;;;;5077827;28;19908;-80
2023/05/28 04:31:02;;;;;;;;;;;18.70;57.40;;;;;;5059831;28;19908;-80
2023/05/28 04:33:31;;;;;;;;;;;18.60;57.30;;;;;;5059564;28;20003;-80
2023/05/28 04:35:57;;;;;;;;;;;18.70;57.30;;;;;;5059641;28;19912;-80
2023/05/28 04:38:23;;;;;;;;;;;18.70;57.30;;;;;;5060600;28;19913;-80
2023/05/28 04:40:53;;;;;;;;;;;18.70;57.20;;;;;;5060507;28;19909;-79
2023/05/28 04:43:21;;;;;;;;;;;18.70;57.20;;;;;;5065828;28;19980;-80
2023/05/28 04:45:46;;;;;;;;;;;18.70;57.20;;;;;;5079695;28;19942;-79
2023/05/28 04:48:12;;;;;;;;;;;18.80;57.10;;;;;;5060381;28;19974;-80
2023/05/28 04:50:37;;;;;;;;;;;18.80;57.10;;;;;;5060244;28;19958;-80
2023/05/28 04:53:04;;;;;;;;;;;18.80;57.00;;;;;;5059408;28;20467;-80
2023/05/28 04:55:30;;;;;;;;;;;18.80;57.00;;;;;;5057965;28;19917;-80
2023/05/28 04:57:55;;;;;;;;;;;18.80;57.00;;;;;;5058619;28;19999;-80
2023/05/28 05:00:21;;;;;;;;;;;18.80;57.00;;;;;;5058125;28;19909;-80
2023/05/28 05:02:47;;;;;;;;;;;18.90;56.90;;;;;;5057994;28;19919;-80
2023/05/28 05:05:14;;;;;;;;;;;18.90;56.80;;;;;;5073558;28;19908;-80
2023/05/28 05:07:39;;;;;;;;;;;19.00;56.80;;;;;;5057184;28;19908;-80
2023/05/28 05:10:09;;;;;;;;;;;19.00;56.80;;;;;;5056997;28;19928;-80
2023/05/28 05:12:34;;;;;;;;;;;19.00;56.70;;;;;;5056353;28;19950;-80
2023/05/28 05:15:00;;;;;;;;;;;19.10;56.60;;;;;;5057289;28;19982;-80
2023/05/28 05:17:26;;;;;;;;;;;19.10;56.50;;;;;;5057683;28;20178;-80
2023/05/28 05:19:52;;;;;;;;;;;19.20;56.50;;;;;;5057305;28;19916;-80
2023/05/28 05:22:18;;;;;;;;;;;19.20;56.40;;;;;;5075264;28;19921;-80
2023/05/28 05:24:45;;;;;;;;;;;19.20;56.30;;;;;;5058285;28;19908;-80
2023/05/28 05:27:10;;;;;;;;;;;19.30;56.20;;;;;;5075904;28;20001;-80
2023/05/28 05:29:36;;;;;;;;;;;19.40;56.10;;;;;;5058907;28;19943;-80
2023/05/28 05:32:01;;;;;;;;;;;19.40;56.00;;;;;;5058114;28;19918;-80
2023/05/28 05:34:27;;;;;;;;;;;19.50;55.90;;;;;;5076320;28;19927;-80
2023/05/28 05:36:52;;;;;;;;;;;19.50;55.70;;;;;;5041973;28;20249;-80
2023/05/28 05:39:18;;;;;;;;;;;19.50;55.70;;;;;;5057657;28;19909;-80
2023/05/28 05:41:44;;;;;;;;;;;19.60;55.50;;;;;;5057513;28;19915;-80
2023/05/28 05:44:09;;;;;;;;;;;19.70;55.50;;;;;;5057505;28;20241;-80
2023/05/28 05:46:35;;;;;;;;;;;19.80;55.30;;;;;;5057793;28;20213;-80
2023/05/28 05:49:01;;;;;;;;;;;19.90;55.20;;;;;;5056569;28;20013;-80
2023/05/28 05:51:26;;;;;;;;;;;20.00;55.00;;;;;;5057166;28;20022;-80
2023/05/28 05:53:52;;;;;;;;;;;20.10;54.90;;;;;;5058058;28;19916;-80
2023/05/28 05:56:17;;;;;;;;;;;20.20;54.80;;;;;;5056843;28;19920;-80
2023/05/28 05:58:43;;;;;;;;;;;20.30;54.60;;;;;;5057576;28;19909;-80
2023/05/28 06:01:09;;;;;;;;;;;20.40;54.40;;;;;;5075219;28;19969;-80
2023/05/28 06:03:35;;;;;;;;;;;20.50;54.30;;;;;;5057829;28;20010;-80
2023/05/28 06:06:00;;;;;;;;;;;20.60;54.10;;;;;;5056578;28;19974;-80
2023/05/28 06:08:26;;;;;;;;;;;20.70;54.00;;;;;;5057427;28;20091;-80
2023/05/28 06:10:51;;;;;;;;;;;20.80;53.80;;;;;;5057545;28;19923;-80
2023/05/28 06:13:17;;;;;;;;;;;20.90;53.70;;;;;;5057506;28;19923;-80
2023/05/28 06:15:44;;;;;;;;;;;21.00;53.50;;;;;;5075257;28;20014;-80
2023/05/28 06:18:11;;;;;;;;;;;21.10;53.40;;;;;;5058318;28;19908;-80
2023/05/28 06:20:36;;;;;;;;;;;21.10;53.20;;;;;;5057532;28;19908;-80
2023/05/28 06:23:02;;;;;;;;;;;21.20;53.10;;;;;;5057691;28;19935;-80
2023/05/28 06:25:28;;;;;;;;;;;21.30;53.00;;;;;;5056854;28;19909;-80
2023/05/28 06:27:53;;;;;;;;;;;21.40;52.90;;;;;;5056402;28;20003;-80
2023/05/28 06:30:19;;;;;;;;;;;21.50;52.80;;;;;;5056781;28;19909;-80
2023/05/28 06:32:45;;;;;;;;;;;21.60;53.10;;;;;;5056727;28;19999;-80
2023/05/28 06:35:10;;;;;;;;;;;21.70;52.50;;;;;;5055534;28;19978;-80
2023/05/28 06:37:36;;;;;;;;;;;21.80;52.40;;;;;;5073201;28;19966;-79
2023/05/28 06:40:05;;;;;;;;;;;21.90;52.20;;;;;;5054602;28;19909;-77
2023/05/28 06:42:31;;;;;;;;;;;22.00;52.10;;;;;;5054314;28;19962;-79
2023/05/28 06:44:58;;;;;;;;;;;22.20;52.00;;;;;;5056783;28;19916;-80
2023/05/28 06:47:24;;;;;;;;;;;22.30;51.90;;;;;;5055953;28;20259;-80
2023/05/28 06:49:50;;;;;;;;;;;22.40;51.70;;;;;;5074837;28;19931;-80
2023/05/28 06:52:15;;;;;;;;;;;22.60;51.60;;;;;;5056504;28;19947;-80
2023/05/28 06:54:41;;;;;;;;;;;22.80;51.40;;;;;;5073175;28;20368;-80
2023/05/28 06:57:07;;;;;;;;;;;23.00;51.20;;;;;;5056326;28;19912;-80
2023/05/28 06:59:33;;;;;;;;;;;23.30;51.00;;;;;;5056016;28;19936;-80
2023/05/28 07:01:58;;;;;;;;;;;23.50;50.60;;;;;;5054226;28;19909;-80
2023/05/28 07:04:24;;;;;;;;;;;23.80;50.30;;;;;;5054024;28;19995;-80
2023/05/28 07:06:50;;;;;;;;;;;24.10;49.90;;;;;;5054381;28;19937;-80
2023/05/28 07:09:15;;;;;;;;;;;24.50;49.60;;;;;;5055555;28;19916;-80
2023/05/28 07:11:41;;;;;;;;;;;24.60;49.20;;;;;;5054280;28;20232;-80
2023/05/28 07:14:06;;;;;;;;;;;24.80;49.00;;;;;;5054959;28;19913;-80
2023/05/28 07:16:32;;;;;;;;;;;24.90;48.80;;;;;;5053435;28;19923;-80
2023/05/28 07:18:57;;;;;;;;;;;25.10;48.50;;;;;;5057287;28;19908;-80
2023/05/28 07:21:23;;;;;;;;;;;25.30;48.40;;;;;;5059243;28;19916;-80
2023/05/28 07:23:48;;;;;;;;;;;25.40;48.20;;;;;;5076199;28;19908;-80
2023/05/28 07:26:14;;;;;;;;;;;25.60;48.00;;;;;;5058487;28;19919;-80
2023/05/28 07:28:40;;;;;;;;;;;25.80;47.90;;;;;;5059645;28;19916;-80
2023/05/28 07:31:06;;;;;;;;;;;26.00;47.70;;;;;;5058940;28;20252;-80
2023/05/28 07:33:31;;;;;;;;;;;26.10;47.60;;;;;;5075356;28;20130;-80
2023/05/28 07:35:57;;;;;;;;;;;26.40;47.40;;;;;;5075441;28;19923;-80
2023/05/28 07:38:23;;;;;;;;;;;26.60;47.30;;;;;;5057233;28;20194;-80
2023/05/28 07:40:49;;;;;;;;;;;26.90;47.00;;;;;;5057810;28;19912;-80
2023/05/28 07:43:15;;;;;;;;;;;27.20;46.70;;;;;;5058914;28;19918;-80
2023/05/28 07:45:40;;;;;;;;;;;27.50;46.40;;;;;;5058376;28;19909;-80
2023/05/28 07:48:06;;;;;;;;;;;27.70;46.30;;;;;;5058452;28;20012;-80
2023/05/28 07:50:32;;;;;;;;;;;27.80;46.20;;;;;;5057805;28;19909;-80
2023/05/28 07:52:57;;;;;;;;;;;28.00;46.00;;;;;;5059355;28;19912;-80
2023/05/28 07:55:39;;;;;;;;;;;28.10;45.80;;;;;;5058777;28;20258;-80
2023/05/28 07:58:05;;;;;;;;;;;28.20;45.70;;;;;;5057724;28;20004;-80
2023/05/28 08:00:31;;;;;;;;;;;28.50;45.60;;;;;;5058443;28;20151;-80
2023/05/28 08:02:56;;;;;;;;;;;28.70;45.40;;;;;;5058466;28;19916;-79
2023/05/28 08:05:22;;;;;;;;;;;29.00;45.30;;;;;;5076812;28;19916;-80
2023/05/28 08:07:53;;;;;;;;;;;29.20;45.10;;;;;;5082386;28;19908;-80
2023/05/28 08:10:19;;;;;;;;;;;29.30;44.90;;;;;;5056181;28;19916;-80
2023/05/28 08:12:47;;;;;;;;;;;29.50;44.90;;;;;;5055490;28;20053;-80
2023/05/28 08:15:13;;;;;;;;;;;29.60;44.60;;;;;;5055456;28;19974;-80
2023/05/28 08:17:42;;;;;;;;;;;29.70;44.60;;;;;;5057012;28;19940;-80
2023/05/28 08:20:22;;;;;;;;;;;29.80;44.50;;;;;;5056440;28;19915;-80
2023/05/28 08:22:47;;;;;;;;;;;29.80;44.40;;;;;;5055139;28;20295;-80
2023/05/28 08:25:13;;;;;;;;;;;30.00;44.30;;;;;;5054321;28;19975;-80
2023/05/28 08:27:38;;;;;;;;;;;30.10;44.20;;;;;;5055444;28;19958;-80
2023/05/28 08:30:05;;;;;;;;;;;30.20;44.10;;;;;;5053778;28;20172;-80
2023/05/28 08:32:30;;;;;;;;;;;30.20;44.10;;;;;;5057224;28;19909;-80
2023/05/28 08:34:56;;;;;;;;;;;30.20;44.00;;;;;;5056356;28;19985;-80
2023/05/28 08:37:21;;;;;;;;;;;30.30;44.00;;;;;;5055746;28;19919;-81
2023/05/28 08:39:47;;;;;;;;;;;30.40;43.90;;;;;;5056703;28;19922;-80
2023/05/28 08:42:13;;;;;;;;;;;30.50;43.80;;;;;;5057570;28;19978;-80
2023/05/28 08:44:38;;;;;;;;;;;30.60;43.80;;;;;;5075748;28;19908;-81
2023/05/28 08:47:04;;;;;;;;;;;30.80;43.70;;;;;;5074633;28;19936;-81
2023/05/28 08:49:31;;;;;;;;;;;30.90;43.60;;;;;;5056106;28;19908;-81
2023/05/28 08:51:58;;;;;;;;;;;31.10;43.50;;;;;;5056139;28;19926;-81
2023/05/28 08:54:24;;;;;;;;;;;31.30;43.40;;;;;;5054875;28;19912;-81
2023/05/28 08:56:50;;;;;;;;;;;31.40;43.30;;;;;;5056047;28;20076;-80
2023/05/28 08:59:16;;;;;;;;;;;31.50;43.20;;;;;;5055998;28;19915;-81
2023/05/28 09:01:42;;;;;;;;;;;31.60;43.20;;;;;;5055634;28;19909;-81
2023/05/28 09:04:07;;;;;;;;;;;31.70;43.10;;;;;;5054927;28;20112;-81
2023/05/28 09:06:36;;;;;;;;;;;31.70;43.10;;;;;;5070939;28;19935;-80
2023/05/28 09:09:02;;;;;;;;;;;31.60;43.00;;;;;;5054569;28;20011;-80
2023/05/28 09:11:27;;;;;;;;;;;31.60;43.10;;;;;;5053024;28;20037;-81
2023/05/28 09:13:53;;;;;;;;;;;31.70;43.10;;;;;;5054845;28;20252;-81
2023/05/28 09:16:22;;;;;;;;;;;31.70;43.10;;;;;;5070823;28;20340;-81
2023/05/28 09:18:51;;;;;;;;;;;31.70;43.10;;;;;;5052241;28;19909;-81
2023/05/28 09:21:18;;;;;;;;;;;31.70;43.10;;;;;;5053604;28;19940;-80
2023/05/28 09:23:47;;;;;;;;;;;31.70;43.10;;;;;;5053973;28;20238;-80
2023/05/28 09:26:12;;;;;;;;;;;31.60;43.10;;;;;;5071119;28;19948;-81
2023/05/28 09:28:42;;;;;;;;;;;31.40;43.20;;;;;;5071902;28;19959;-81
2023/05/28 09:31:07;;;;;;;;;;;31.00;43.30;;;;;;5071265;28;20077;-80
2023/05/28 09:33:33;;;;;;;;;;;30.60;43.40;;;;;;5054094;28;19908;-81
2023/05/28 09:36:00;;;;;;;;;;;30.20;43.60;;;;;;5054089;28;20010;-81
2023/05/28 09:38:26;;;;;;;;;;;29.90;43.90;;;;;;5053957;28;19915;-81
2023/05/28 09:40:54;;;;;;;;;;;29.50;44.00;;;;;;5053562;28;19963;-80
2023/05/28 09:43:26;;;;;;;;;;;29.20;44.20;;;;;;5054081;28;20271;-81
2023/05/28 09:45:52;;;;;;;;;;;29.00;44.50;;;;;;5055338;28;19908;-81
2023/05/28 09:48:17;;;;;;;;;;;28.80;44.70;;;;;;5054757;28;19915;-81
2023/05/28 09:50:43;;;;;;;;;;;28.60;44.80;;;;;;5054766;28;19963;-80
2023/05/28 09:53:09;;;;;;;;;;;28.40;45.00;;;;;;5053539;28;19939;-81
2023/05/28 09:55:35;;;;;;;;;;;28.30;45.10;;;;;;5071786;28;20221;-80
2023/05/28 09:58:02;;;;;;;;;;;28.20;45.30;;;;;;5069948;28;19908;-81
2023/05/28 10:00:52;;;;;;;;;;;28.10;45.40;;;;;;5052005;28;20141;-81
2023/05/28 10:03:17;;;;;;;;;;;28.00;45.50;;;;;;5069946;28;20217;-81
2023/05/28 10:05:44;;;;;;;;;;;28.00;45.60;;;;;;5069603;28;20357;-80
2023/05/28 10:08:15;;;;;;;;;;;27.90;45.70;;;;;;5051997;28;19974;-80
2023/05/28 10:10:42;;;;;;;;;;;27.90;45.80;;;;;;5070808;28;19916;-81
2023/05/28 10:13:09;;;;;;;;;;;27.80;45.80;;;;;;5071175;28;19920;-81
2023/05/28 10:15:35;;;;;;;;;;;27.70;45.90;;;;;;5053112;28;19912;-81
2023/05/28 10:18:02;;;;;;;;;;;27.70;46.00;;;;;;5052971;28;20225;-81
2023/05/28 10:20:28;;;;;;;;;;;27.60;46.10;;;;;;5053204;28;19947;-80
2023/05/28 10:22:53;;;;;;;;;;;27.60;46.20;;;;;;5070725;28;20285;-80
2023/05/28 10:25:19;;;;;;;;;;;27.50;46.30;;;;;;5054754;28;19915;-80
2023/05/28 10:27:45;;;;;;;;;;;27.40;46.30;;;;;;5053969;28;20194;-81
2023/05/28 10:30:12;;;;;;;;;;;27.40;46.40;;;;;;5052883;28;19916;-81
2023/05/28 10:32:40;;;;;;;;;;;27.30;46.90;;;;;;5069488;28;19909;-80
2023/05/28 10:35:06;;;;;;;;;;;27.20;46.60;;;;;;5069714;28;19916;-80
2023/05/28 10:37:34;;;;;;;;;;;27.20;46.70;;;;;;5054078;28;20011;-81
2023/05/28 10:40:00;;;;;;;;;;;27.10;46.80;;;;;;5068183;28;19979;-80
2023/05/28 10:42:25;;;;;;;;;;;27.00;46.90;;;;;;5052029;28;19915;-80
2023/05/28 10:44:52;;;;;;;;;;;26.90;47.00;;;;;;5052863;28;20003;-80
2023/05/28 10:47:18;;;;;;;;;;;26.90;47.10;;;;;;5051355;28;19908;-80
2023/05/28 10:50:00;;;;;;;;;;;26.80;47.20;;;;;;5069278;28;19916;-81
2023/05/28 10:52:26;;;;;;;;;;;26.80;47.30;;;;;;5053256;28;20004;-80
2023/05/28 10:54:52;;;;;;;;;;;26.70;47.40;;;;;;5057665;28;19987;-80
2023/05/28 10:57:19;;;;;;;;;;;26.70;47.50;;;;;;5057555;28;20380;-80
2023/05/28 10:59:45;;;;;;;;;;;26.70;47.60;;;;;;5056463;28;19956;-80
2023/05/28 11:02:10;;;;;;;;;;;26.60;47.60;;;;;;5054910;28;19934;-80
2023/05/28 11:04:36;;;;;;;;;;;26.60;47.70;;;;;;5054789;28;19908;-81
2023/05/28 11:07:02;;;;;;;;;;;26.60;47.80;;;;;;5055188;28;20205;-81
2023/05/28 11:09:28;;;;;;;;;;;26.50;47.80;;;;;;5073360;28;19917;-80
2023/05/28 11:11:57;;;;;;;;;;;26.50;47.90;;;;;;5074175;28;20187;-81
2023/05/28 11:14:23;;;;;;;;;;;26.50;48.00;;;;;;5073288;28;19925;-80
2023/05/28 11:16:48;;;;;;;;;;;26.40;48.00;;;;;;5057072;28;19974;-81
2023/05/28 11:19:14;;;;;;;;;;;26.40;48.10;;;;;;5060074;28;20263;-80
2023/05/28 11:21:50;;;;;;;;;;;26.40;48.20;;;;;;5037876;28;19973;-81
2023/05/28 11:24:15;;;;;;;;;;;26.40;48.30;;;;;;5071374;28;20061;-81
2023/05/28 11:26:41;;;;;;;;;;;26.40;48.30;;;;;;5052703;28;19971;-80
2023/05/28 11:29:06;;;;;;;;;;;26.40;48.40;;;;;;5071308;28;19916;-80
2023/05/28 11:31:42;;;;;;;;;;;26.40;48.40;;;;;;5052764;28;20259;-81
2023/05/28 11:34:08;;;;;;;;;;;26.40;48.40;;;;;;5073601;28;20322;-81
2023/05/28 11:36:43;;;;;;;;;;;26.40;48.50;;;;;;5072371;28;20264;-81
2023/05/28 11:39:10;;;;;;;;;;;26.30;48.50;;;;;;5056545;28;19908;-81
2023/05/28 11:41:36;;;;;;;;;;;26.30;48.50;;;;;;5056551;28;19908;-81
2023/05/28 11:44:01;;;;;;;;;;;26.30;48.50;;;;;;5057550;28;19915;-80
2023/05/28 11:46:27;;;;;;;;;;;26.30;48.60;;;;;;5055299;28;19920;-81
2023/05/28 11:48:53;;;;;;;;;;;26.30;48.70;;;;;;5055082;28;19919;-80
2023/05/28 11:51:19;;;;;;;;;;;26.20;48.70;;;;;;5054288;28;19916;-80
2023/05/28 11:53:45;;;;;;;;;;;26.20;48.70;;;;;;5071624;28;19955;-80
2023/05/28 11:56:11;;;;;;;;;;;26.20;49.20;;;;;;5054805;28;19955;-80
2023/05/28 11:58:40;;;;;;;;;;;26.20;48.90;;;;;;5071968;28;19923;-80
2023/05/28 12:01:06;;;;;;;;;;;26.20;48.90;;;;;;5053273;28;19967;-80
2023/05/28 12:03:32;;;;;;;;;;;26.20;48.90;;;;;;5053526;28;20282;-80
2023/05/28 12:05:57;;;;;;;;;;;26.10;49.00;;;;;;5054359;28;19908;-81
2023/05/28 12:08:23;;;;;;;;;;;26.10;49.00;;;;;;5052828;28;20003;-80
2023/05/28 12:10:48;;;;;;;;;;;26.10;49.00;;;;;;5073380;28;20148;-80
2023/05/28 12:13:14;;;;;;;;;;;26.10;49.00;;;;;;5072017;28;19980;-80
2023/05/28 12:15:41;;;;;;;;;;;26.10;49.00;;;;;;5054294;28;20013;-79
2023/05/28 12:18:06;;;;;;;;;;;26.10;49.10;;;;;;5055803;28;19915;-81
2023/05/28 12:20:32;;;;;;;;;;;26.10;49.10;;;;;;5053996;28;19908;-80
2023/05/28 12:23:02;;;;;;;;;;;26.10;48.90;;;;;;5058006;28;19919;-81
2023/05/28 12:25:27;;;;;;;;;;;26.10;48.90;;;;;;5074127;28;19921;-81
2023/05/28 12:27:53;;;;;;;;;;;26.10;48.70;;;;;;5060494;28;19916;-80
2023/05/28 12:30:18;;;;;;;;;;;26.10;49.10;;;;;;5073704;28;19909;-79
2023/05/28 12:32:44;;;;;;;;;;;26.10;49.10;;;;;;5055610;28;20073;-80
2023/05/28 12:35:10;;;;;;;;;;;26.10;49.20;;;;;;5054686;28;19919;-80
2023/05/28 12:37:35;;;;;;;;;;;26.00;49.50;;;;;;5056049;28;19909;-79
2023/05/28 12:40:01;;;;;;;;;;;26.00;49.20;;;;;;5073979;28;19997;-80
2023/05/28 12:42:26;;;;;;;;;;;26.00;49.20;;;;;;5054794;28;19912;-80
2023/05/28 12:44:52;;;;;;;;;;;26.00;49.20;;;;;;5055423;28;19990;-80
2023/05/28 12:47:18;;;;;;;;;;;26.00;49.30;;;;;;5073130;28;19947;-80
2023/05/28 12:49:43;;;;;;;;;;;25.90;48.80;;;;;;5055476;28;19908;-79
2023/05/28 12:52:09;;;;;;;;;;;25.90;48.90;;;;;;5072315;28;19908;-79
2023/05/28 12:54:35;;;;;;;;;;;25.90;49.20;;;;;;5054607;28;19916;-80
2023/05/28 12:57:01;;;;;;;;;;;25.90;49.30;;;;;;5054394;28;19985;-80
2023/05/28 12:59:27;;;;;;;;;;;25.80;49.30;;;;;;5053033;28;20195;-80
2023/05/28 13:01:54;;;;;;;;;;;25.80;49.40;;;;;;5051860;28;19948;-80
2023/05/28 13:04:20;;;;;;;;;;;25.80;49.40;;;;;;5053713;28;20288;-79
2023/05/28 13:06:47;;;;;;;;;;;25.80;49.40;;;;;;5054479;28;20165;-79
2023/05/28 13:09:13;;;;;;;;;;;25.80;49.50;;;;;;5071750;28;20008;-80
2023/05/28 13:11:39;;;;;;;;;;;25.70;49.50;;;;;;5053663;28;20032;-80
2023/05/28 13:14:05;;;;;;;;;;;25.80;49.30;;;;;;5071213;28;20473;-80
2023/05/28 13:16:31;;;;;;;;;;;25.70;49.20;;;;;;5054520;28;20019;-80
2023/05/28 13:18:57;;;;;;;;;;;25.70;49.40;;;;;;5072538;28;19920;-80
2023/05/28 13:21:23;;;;;;;;;;;25.70;49.50;;;;;;5055530;28;19908;-80
2023/05/28 13:23:48;;;;;;;;;;;25.70;49.60;;;;;;5055531;28;19909;-80
2023/05/28 13:26:22;;;;;;;;;;;25.70;49.60;;;;;;5055815;28;19909;-80
2023/05/28 13:28:47;;;;;;;;;;;25.70;49.60;;;;;;5073783;28;20204;-80
2023/05/28 13:31:13;;;;;;;;;;;25.70;49.70;;;;;;5057184;28;19999;-80
2023/05/28 13:33:39;;;;;;;;;;;25.60;49.60;;;;;;5055680;28;19909;-80
2023/05/28 13:36:06;;;;;;;;;;;25.60;49.60;;;;;;5054695;28;19923;-80
2023/05/28 13:38:33;;;;;;;;;;;25.60;49.60;;;;;;5056118;28;20210;-80
2023/05/28 13:40:59;;;;;;;;;;;25.60;49.70;;;;;;5055980;28;20318;-80
2023/05/28 13:43:25;;;;;;;;;;;25.60;49.70;;;;;;5056635;28;19908;-80
2023/05/28 13:45:51;;;;;;;;;;;25.60;49.50;;;;;;5054650;28;20443;-80
2023/05/28 13:48:16;;;;;;;;;;;25.60;49.70;;;;;;5053362;28;20411;-80
2023/05/28 13:50:43;;;;;;;;;;;25.60;49.70;;;;;;5054158;28;19917;-80
2023/05/28 13:53:08;;;;;;;;;;;25.60;49.70;;;;;;5054137;28;20159;-80
2023/05/28 13:55:34;;;;;;;;;;;25.60;49.70;;;;;;5071042;28;19924;-79
2023/05/28 13:57:59;;;;;;;;;;;25.60;49.70;;;;;;5052307;28;19916;-80
2023/05/28 14:00:25;;;;;;;;;;;25.60;49.80;;;;;;5069084;28;19916;-80
2023/05/28 14:02:51;;;;;;;;;;;25.60;49.90;;;;;;5070974;28;20011;-80
2023/05/28 14:05:16;;;;;;;;;;;25.60;49.80;;;;;;5052956;28;19909;-80
2023/05/28 14:07:42;;;;;;;;;;;25.50;49.40;;;;;;5053430;28;20171;-80
2023/05/28 14:10:08;;;;;;;;;;;25.60;49.70;;;;;;5054844;28;19929;-80